Time;durP1;ratioP1;P1;durP2;ratioP2;P2;SDS_P1;SDS_P2;PMS_P1;PMS_P2;Temp;Humidity;BMP_temperature;BMP_pressure;BME280_temperature;BME280_humidity;BME280_pressure;Samples;Min_cycle;Max_cycle;Signal;HPM_P1;HPM_P2
2022/08/03 00:01:17;;;;;;;;;;;;;;;;;;5096040;28;19923;-87
2022/08/03 00:03:42;;;;;;;;;;;;;;;;;;5113715;28;19920;-86
2022/08/03 00:06:07;;;;;;;;;;;;;;;;;;5104619;28;19927;-86
2022/08/03 00:08:33;;;;;;;;;;;;;;;;;;5095820;28;19939;-86
2022/08/03 00:10:58;;;;;;;;;;;;;;;;;;5095131;28;20291;-86
2022/08/03 00:13:24;;;;;;;;;;;;;;;;;;5111017;28;20254;-86
2022/08/03 00:15:49;;;;;;;;;;;;;;;;;;5096003;28;19915;-86
2022/08/03 00:18:14;;;;;;;;;;;;;;;;;;5094127;28;19916;-86
2022/08/03 00:20:39;;;;;;;;;;;;;;;;;;5111964;28;19923;-86
2022/08/03 00:23:05;;;;;;;;;;;;;;;;;;5097258;28;19928;-85
2022/08/03 00:25:31;;;;;;;;;;;;;;;;;;5118872;28;19938;-85
2022/08/03 00:27:56;;;;;;;;;;;;;;;;;;5099789;28;20396;-86
2022/08/03 00:30:21;;;;;;;;;;;;;;;;;;5095563;28;19916;-86
2022/08/03 00:32:47;;;;;;;;;;;;;;;;;;5095485;28;20018;-86
2022/08/03 00:35:12;;;;;;;;;;;;;;;;;;5095462;28;19951;-86
2022/08/03 00:37:37;;;;;;;;;;;;;;;;;;5111225;28;19917;-86
2022/08/03 00:40:03;;;;;;;;;;;;;;;;;;5095084;28;19916;-85
2022/08/03 00:42:28;;;;;;;;;;;;;;;;;;5097985;28;19998;-84
2022/08/03 00:44:53;;;;;;;;;;;;;;;;;;5112421;28;19920;-86
2022/08/03 00:47:19;;;;;;;;;;;;;;;;;;5106992;28;19930;-86
2022/08/03 00:49:44;;;;;;;;;;;;;;;;;;5098873;28;19920;-86
2022/08/03 00:52:10;;;;;;;;;;;;;;;;;;5095227;28;20254;-86
2022/08/03 00:54:36;;;;;;;;;;;;;;;;;;5093747;28;20261;-86
2022/08/03 00:57:01;;;;;;;;;;;;;;;;;;5095025;28;19923;-86
2022/08/03 00:59:26;;;;;;;;;;;;;;;;;;5095086;28;19916;-86
2022/08/03 01:01:52;;;;;;;;;;;;;;;;;;5100047;28;19927;-87
2022/08/03 01:04:17;;;;;;;;;;;;;;;;;;5113147;28;19908;-86
2022/08/03 01:06:50;;;;;;;;;;;;;;;;;;5114668;28;19921;-86
2022/08/03 01:09:24;;;;;;;;;;;;;;;;;;5116510;28;19908;-86
2022/08/03 01:11:52;;;;;;;;;;;;;;;;;;5110668;28;19967;-86
2022/08/03 01:14:23;;;;;;;;;;;;;;;;;;5095062;28;19923;-86
2022/08/03 01:16:48;;;;;;;;;;;;;;;;;;5110405;28;19916;-85
2022/08/03 01:19:34;;;;;;;;;;;;;;;;;;5095002;28;20064;-86
2022/08/03 01:22:22;;;;;;;;;;;;;;;;;;5082898;28;20405;-86
2022/08/03 01:24:47;;;;;;;;;;;;;;;;;;5116686;28;19916;-84
2022/08/03 01:27:20;;;;;;;;;;;;;;;;;;5103729;28;20337;-83
2022/08/03 01:29:49;;;;;;;;;;;;;;;;;;5119886;28;19927;-86
2022/08/03 01:32:23;;;;;;;;;;;;;;;;;;5114479;28;19916;-86
2022/08/03 01:35:03;;;;;;;;;;;;;;;;;;5114727;28;19994;-86
2022/08/03 01:37:34;;;;;;;;;;;;;;;;;;5114673;28;19916;-86
2022/08/03 01:40:00;;;;;;;;;;;;;;;;;;5114020;28;19923;-86
2022/08/03 01:42:25;;;;;;;;;;;;;;;;;;5114762;28;19920;-86
2022/08/03 01:44:50;;;;;;;;;;;;;;;;;;5097245;28;19924;-86
2022/08/03 01:47:16;;;;;;;;;;;;;;;;;;5103245;28;19939;-87
2022/08/03 01:49:42;;;;;;;;;;;;;;;;;;5123162;28;19942;-86
2022/08/03 01:52:07;;;;;;;;;;;;;;;;;;5098622;28;19916;-86
2022/08/03 01:54:33;;;;;;;;;;;;;;;;;;5114380;28;19916;-86
2022/08/03 01:56:59;;;;;;;;;;;;;;;;;;5098402;28;19923;-86
2022/08/03 01:59:24;;;;;;;;;;;;;;;;;;5098131;28;19916;-86
2022/08/03 02:01:50;;;;;;;;;;;;;;;;;;5114181;28;20008;-87
2022/08/03 02:04:16;;;;;;;;;;;;;;;;;;5113950;28;19916;-84
2022/08/03 02:06:41;;;;;;;;;;;;;;;;;;5114120;28;19922;-83
2022/08/03 02:09:07;;;;;;;;;;;;;;;;;;5116358;28;19916;-83
2022/08/03 02:11:32;;;;;;;;;;;;;;;;;;5107230;28;19916;-84
2022/08/03 02:13:58;;;;;;;;;;;;;;;;;;5113966;28;19916;-84
2022/08/03 02:16:23;;;;;;;;;;;;;;;;;;5098046;28;19919;-84
2022/08/03 02:18:49;;;;;;;;;;;;;;;;;;5113686;28;19920;-86
2022/08/03 02:21:14;;;;;;;;;;;;;;;;;;5114246;28;19917;-86
2022/08/03 02:23:40;;;;;;;;;;;;;;;;;;5097970;28;20270;-86
2022/08/03 02:26:05;;;;;;;;;;;;;;;;;;5098030;28;20003;-87
2022/08/03 02:28:31;;;;;;;;;;;;;;;;;;5097848;28;19916;-86
2022/08/03 02:30:57;;;;;;;;;;;;;;;;;;5103182;28;20276;-87
2022/08/03 02:33:27;;;;;;;;;;;;;;;;;;5100180;28;19916;-87
2022/08/03 02:35:52;;;;;;;;;;;;;;;;;;5097960;28;20031;-86
2022/08/03 02:38:18;;;;;;;;;;;;;;;;;;5113006;28;19956;-86
2022/08/03 02:40:43;;;;;;;;;;;;;;;;;;5113999;28;19916;-86
2022/08/03 02:43:09;;;;;;;;;;;;;;;;;;5113330;28;19920;-86
2022/08/03 02:45:35;;;;;;;;;;;;;;;;;;5097260;28;20379;-86
2022/08/03 02:48:02;;;;;;;;;;;;;;;;;;5097785;28;19988;-86
2022/08/03 02:50:29;;;;;;;;;;;;;;;;;;5113054;28;19920;-86
2022/08/03 02:52:54;;;;;;;;;;;;;;;;;;5121107;28;19992;-86
2022/08/03 02:55:20;;;;;;;;;;;;;;;;;;5118118;28;19994;-86
2022/08/03 02:57:45;;;;;;;;;;;;;;;;;;5097550;28;19916;-86
2022/08/03 03:00:11;;;;;;;;;;;;;;;;;;5113130;28;19923;-86
2022/08/03 03:02:36;;;;;;;;;;;;;;;;;;5095971;28;19919;-86
2022/08/03 03:05:02;;;;;;;;;;;;;;;;;;5112905;28;19916;-87
2022/08/03 03:07:27;;;;;;;;;;;;;;;;;;5096748;28;19915;-86
2022/08/03 03:09:52;;;;;;;;;;;;;;;;;;5113109;28;19916;-86
2022/08/03 03:12:17;;;;;;;;;;;;;;;;;;5116538;28;20447;-86
2022/08/03 03:14:43;;;;;;;;;;;;;;;;;;5107775;28;19916;-86
2022/08/03 03:17:09;;;;;;;;;;;;;;;;;;5095687;28;19916;-85
2022/08/03 03:19:34;;;;;;;;;;;;;;;;;;5112509;28;19916;-86
2022/08/03 03:22:00;;;;;;;;;;;;;;;;;;5096206;28;19912;-86
2022/08/03 03:24:26;;;;;;;;;;;;;;;;;;5112338;28;19939;-86
2022/08/03 03:26:51;;;;;;;;;;;;;;;;;;5097209;28;19912;-86
2022/08/03 03:29:17;;;;;;;;;;;;;;;;;;5112889;28;20287;-85
2022/08/03 03:31:42;;;;;;;;;;;;;;;;;;5095228;28;19973;-86
2022/08/03 03:34:07;;;;;;;;;;;;;;;;;;5118786;28;19923;-86
2022/08/03 03:36:33;;;;;;;;;;;;;;;;;;5122203;28;19921;-86
2022/08/03 03:38:58;;;;;;;;;;;;;;;;;;5096607;28;19920;-86
2022/08/03 03:41:23;;;;;;;;;;;;;;;;;;5095255;28;20330;-87
2022/08/03 03:43:49;;;;;;;;;;;;;;;;;;5096333;28;19920;-86
2022/08/03 03:46:14;;;;;;;;;;;;;;;;;;5096416;28;19965;-84
2022/08/03 03:48:40;;;;;;;;;;;;;;;;;;5096257;28;20325;-84
2022/08/03 03:51:05;;;;;;;;;;;;;;;;;;5111677;28;20334;-87
2022/08/03 03:53:31;;;;;;;;;;;;;;;;;;5114156;28;20330;-86
2022/08/03 03:55:56;;;;;;;;;;;;;;;;;;5101065;28;19916;-87
2022/08/03 03:58:21;;;;;;;;;;;;;;;;;;5106283;28;19920;-86
2022/08/03 04:00:47;;;;;;;;;;;;;;;;;;5096012;28;19959;-84
2022/08/03 04:03:12;;;;;;;;;;;;;;;;;;5111830;28;19998;-84
2022/08/03 04:11:08;;;;;;;;;;;;;;;;;;5095739;28;19923;-86
2022/08/03 04:13:53;;;;;;;;;;;;;;;;;;5111740;28;19916;-84
2022/08/03 04:16:19;;;;;;;;;;;;;;;;;;5087687;28;19928;-84
2022/08/03 04:18:47;;;;;;;;;;;;;;;;;;5095568;28;19916;-86
2022/08/03 04:21:12;;;;;;;;;;;;;;;;;;5114535;28;19916;-84
2022/08/03 04:23:40;;;;;;;;;;;;;;;;;;5111194;28;19939;-85
2022/08/03 04:26:08;;;;;;;;;;;;;;;;;;5094087;28;19944;-86
2022/08/03 04:28:33;;;;;;;;;;;;;;;;;;5111137;28;19980;-85
2022/08/03 04:30:59;;;;;;;;;;;;;;;;;;5095161;28;20284;-85
2022/08/03 04:33:25;;;;;;;;;;;;;;;;;;5111344;28;20364;-85
2022/08/03 04:35:50;;;;;;;;;;;;;;;;;;5119861;28;19916;-86
2022/08/03 04:38:16;;;;;;;;;;;;;;;;;;5115439;28;19916;-87
2022/08/03 04:40:41;;;;;;;;;;;;;;;;;;5111049;28;19971;-85
2022/08/03 04:43:07;;;;;;;;;;;;;;;;;;5094891;28;19920;-86
2022/08/03 04:45:32;;;;;;;;;;;;;;;;;;5110877;28;19916;-86
2022/08/03 04:47:58;;;;;;;;;;;;;;;;;;5110635;28;19916;-86
2022/08/03 04:50:23;;;;;;;;;;;;;;;;;;5110900;28;20023;-85
2022/08/03 04:52:49;;;;;;;;;;;;;;;;;;5094884;28;19956;-86
2022/08/03 04:55:30;;;;;;;;;;;;;;;;;;5094431;28;19949;-85
2022/08/03 04:57:55;;;;;;;;;;;;;;;;;;5107931;28;19920;-86
2022/08/03 05:00:21;;;;;;;;;;;;;;;;;;5094921;28;19998;-86
2022/08/03 05:02:46;;;;;;;;;;;;;;;;;;5115473;28;19923;-86
2022/08/03 05:05:11;;;;;;;;;;;;;;;;;;5095764;28;19916;-86
2022/08/03 05:07:37;;;;;;;;;;;;;;;;;;5095167;28;19938;-83
2022/08/03 05:10:06;;;;;;;;;;;;;;;;;;5094980;28;20357;-80
2022/08/03 05:12:31;;;;;;;;;;;;;;;;;;5094709;28;19916;-80
2022/08/03 05:14:56;;;;;;;;;;;;;;;;;;5094946;28;19916;-81
2022/08/03 05:17:21;;;;;;;;;;;;;;;;;;5100006;28;19923;-81
2022/08/03 05:19:47;;;;;;;;;;;;;;;;;;5098071;28;19918;-81
2022/08/03 05:22:12;;;;;;;;;;;;;;;;;;5094647;28;20258;-83
2022/08/03 05:24:37;;;;;;;;;;;;;;;;;;5094873;28;19920;-80
2022/08/03 05:27:03;;;;;;;;;;;;;;;;;;5094780;28;19973;-81
2022/08/03 05:29:28;;;;;;;;;;;;;;;;;;5094879;28;19920;-81
2022/08/03 05:31:53;;;;;;;;;;;;;;;;;;5094531;28;20022;-81
2022/08/03 05:34:19;;;;;;;;;;;;;;;;;;5093154;28;19916;-81
2022/08/03 05:36:44;;;;;;;;;;;;;;;;;;5095054;28;20295;-81
2022/08/03 05:39:09;;;;;;;;;;;;;;;;;;5112816;28;19916;-82
2022/08/03 05:41:35;;;;;;;;;;;;;;;;;;5094468;28;20001;-80
2022/08/03 05:44:01;;;;;;;;;;;;;;;;;;5094588;28;19974;-80
2022/08/03 05:46:27;;;;;;;;;;;;;;;;;;5094042;28;19916;-80
2022/08/03 05:48:52;;;;;;;;;;;;;;;;;;5110253;28;19961;-79
2022/08/03 05:51:17;;;;;;;;;;;;;;;;;;5110105;28;19966;-80
2022/08/03 05:53:43;;;;;;;;;;;;;;;;;;5110052;28;20261;-80
2022/08/03 05:56:08;;;;;;;;;;;;;;;;;;5094264;28;19985;-81
2022/08/03 05:58:33;;;;;;;;;;;;;;;;;;5110164;28;19916;-80
2022/08/03 06:00:59;;;;;;;;;;;;;;;;;;5094113;28;19923;-80
2022/08/03 06:03:24;;;;;;;;;;;;;;;;;;5094344;28;19916;-80
2022/08/03 06:05:49;;;;;;;;;;;;;;;;;;5094528;28;20360;-80
2022/08/03 06:08:15;;;;;;;;;;;;;;;;;;5096527;28;20261;-80
2022/08/03 06:10:40;;;;;;;;;;;;;;;;;;5098055;28;19923;-80
2022/08/03 06:13:05;;;;;;;;;;;;;;;;;;5097801;28;20341;-80
2022/08/03 06:15:32;;;;;;;;;;;;;;;;;;5097762;28;19953;-80
2022/08/03 06:17:57;;;;;;;;;;;;;;;;;;5097827;28;19922;-81
2022/08/03 06:20:23;;;;;;;;;;;;;;;;;;5101754;28;19998;-80
2022/08/03 06:22:48;;;;;;;;;;;;;;;;;;5098130;28;19916;-80
2022/08/03 06:25:13;;;;;;;;;;;;;;;;;;5098224;28;19923;-80
2022/08/03 06:27:39;;;;;;;;;;;;;;;;;;5097785;28;19919;-79
2022/08/03 06:30:05;;;;;;;;;;;;;;;;;;5113045;28;19923;-80
2022/08/03 06:32:30;;;;;;;;;;;;;;;;;;5097680;28;19918;-80
2022/08/03 06:34:55;;;;;;;;;;;;;;;;;;5096085;28;20349;-80
2022/08/03 06:37:22;;;;;;;;;;;;;;;;;;5097562;28;19916;-80
2022/08/03 06:39:50;;;;;;;;;;;;;;;;;;5098493;28;20314;-79
2022/08/03 06:42:17;;;;;;;;;;;;;;;;;;5103951;28;20077;-79
2022/08/03 06:44:42;;;;;;;;;;;;;;;;;;5098249;28;19943;-80
2022/08/03 06:47:08;;;;;;;;;;;;;;;;;;5097545;28;20318;-81
2022/08/03 06:49:33;;;;;;;;;;;;;;;;;;5096922;28;19966;-80
2022/08/03 06:51:59;;;;;;;;;;;;;;;;;;5097900;28;19917;-79
2022/08/03 06:54:24;;;;;;;;;;;;;;;;;;5095804;28;19912;-80
2022/08/03 06:56:50;;;;;;;;;;;;;;;;;;5097005;28;19924;-79
2022/08/03 06:59:15;;;;;;;;;;;;;;;;;;5097101;28;19918;-79
2022/08/03 07:01:40;;;;;;;;;;;;;;;;;;5122644;28;19916;-79
2022/08/03 07:04:06;;;;;;;;;;;;;;;;;;5113969;28;19916;-79
2022/08/03 07:06:31;;;;;;;;;;;;;;;;;;5096959;28;20705;-79
2022/08/03 07:08:56;;;;;;;;;;;;;;;;;;5112823;28;19939;-80
2022/08/03 07:11:21;;;;;;;;;;;;;;;;;;5097264;28;20246;-79
2022/08/03 07:13:47;;;;;;;;;;;;;;;;;;5097080;28;19916;-79
2022/08/03 07:16:12;;;;;;;;;;;;;;;;;;5096998;28;20265;-79
2022/08/03 07:18:38;;;;;;;;;;;;;;;;;;5096315;28;19916;-80
2022/08/03 07:21:03;;;;;;;;;;;;;;;;;;5098509;28;19954;-78
2022/08/03 07:23:28;;;;;;;;;;;;;;;;;;5104017;28;19916;-80
2022/08/03 07:25:54;;;;;;;;;;;;;;;;;;5097067;28;20261;-80
2022/08/03 07:28:19;;;;;;;;;;;;;;;;;;5096578;28;20241;-80
2022/08/03 07:30:44;;;;;;;;;;;;;;;;;;5096149;28;19945;-81
2022/08/03 07:33:10;;;;;;;;;;;;;;;;;;5096496;28;19916;-80
2022/08/03 07:35:35;;;;;;;;;;;;;;;;;;5096694;28;20376;-80
2022/08/03 07:38:00;;;;;;;;;;;;;;;;;;5096266;28;19923;-80
2022/08/03 07:40:26;;;;;;;;;;;;;;;;;;5096390;28;19923;-79
2022/08/03 07:42:51;;;;;;;;;;;;;;;;;;5115310;28;20320;-80
2022/08/03 07:45:16;;;;;;;;;;;;;;;;;;5096659;28;19965;-80
2022/08/03 07:47:42;;;;;;;;;;;;;;;;;;5096379;28;19920;-80
2022/08/03 07:50:07;;;;;;;;;;;;;;;;;;5096169;28;19916;-80
2022/08/03 07:52:48;;;;;;;;;;;;;;;;;;5096684;28;20324;-80
2022/08/03 07:55:13;;;;;;;;;;;;;;;;;;5095798;28;20007;-79
2022/08/03 07:57:39;;;;;;;;;;;;;;;;;;5095523;28;19951;-80
2022/08/03 08:00:05;;;;;;;;;;;;;;;;;;5095999;28;19920;-79
2022/08/03 08:02:30;;;;;;;;;;;;;;;;;;5096205;28;20020;-78
2022/08/03 08:04:55;;;;;;;;;;;;;;;;;;5095904;28;19945;-79
2022/08/03 08:07:21;;;;;;;;;;;;;;;;;;5095925;28;20258;-80
2022/08/03 08:09:46;;;;;;;;;;;;;;;;;;5095433;28;20231;-80
2022/08/03 08:12:11;;;;;;;;;;;;;;;;;;5095770;28;19946;-80
2022/08/03 08:14:37;;;;;;;;;;;;;;;;;;5111204;28;19916;-81
2022/08/03 08:17:02;;;;;;;;;;;;;;;;;;5094247;28;19916;-80
2022/08/03 08:19:27;;;;;;;;;;;;;;;;;;5095526;28;19916;-79
2022/08/03 08:21:53;;;;;;;;;;;;;;;;;;5095668;28;19916;-79
2022/08/03 08:24:18;;;;;;;;;;;;;;;;;;5099304;28;19959;-79
2022/08/03 08:26:43;;;;;;;;;;;;;;;;;;5095317;28;19925;-79
2022/08/03 08:29:09;;;;;;;;;;;;;;;;;;5095099;28;19920;-79
2022/08/03 08:31:34;;;;;;;;;;;;;;;;;;5094301;28;19919;-78
2022/08/03 08:34:04;;;;;;;;;;;;;;;;;;5093939;28;19916;-79
2022/08/03 08:36:30;;;;;;;;;;;;;;;;;;5109317;28;20322;-80
2022/08/03 08:38:55;;;;;;;;;;;;;;;;;;5095040;28;19923;-79
2022/08/03 08:41:20;;;;;;;;;;;;;;;;;;5094827;28;19923;-79
2022/08/03 08:43:46;;;;;;;;;;;;;;;;;;5096252;28;19919;-80
2022/08/03 08:46:11;;;;;;;;;;;;;;;;;;5096741;28;20323;-80
2022/08/03 08:48:39;;;;;;;;;;;;;;;;;;5095136;28;20008;-79
2022/08/03 08:51:04;;;;;;;;;;;;;;;;;;5110286;28;20318;-79
2022/08/03 08:53:31;;;;;;;;;;;;;;;;;;5094730;28;20011;-80
2022/08/03 08:55:58;;;;;;;;;;;;;;;;;;5110831;28;20241;-80
2022/08/03 08:58:23;;;;;;;;;;;;;;;;;;5095224;28;20007;-80
2022/08/03 09:00:49;;;;;;;;;;;;;;;;;;5095128;28;19955;-80
2022/08/03 09:03:16;;;;;;;;;;;;;;;;;;5094861;28;19923;-80
2022/08/03 09:05:42;;;;;;;;;;;;;;;;;;5116971;28;20019;-80
2022/08/03 09:08:07;;;;;;;;;;;;;;;;;;5095849;28;19955;-80
2022/08/03 09:10:33;;;;;;;;;;;;;;;;;;5094885;28;19917;-80
2022/08/03 09:12:58;;;;;;;;;;;;;;;;;;5095046;28;19916;-79
2022/08/03 09:15:25;;;;;;;;;;;;;;;;;;5093592;28;19916;-81
2022/08/03 09:17:51;;;;;;;;;;;;;;;;;;5094559;28;19923;-79
2022/08/03 09:20:17;;;;;;;;;;;;;;;;;;5094830;28;19923;-80
2022/08/03 09:22:53;;;;;;;;;;;;;;;;;;5094527;28;20006;-81
2022/08/03 09:25:18;;;;;;;;;;;;;;;;;;5096215;28;19916;-80
2022/08/03 09:27:44;;;;;;;;;;;;;;;;;;5099096;28;19971;-80
2022/08/03 09:30:13;;;;;;;;;;;;;;;;;;5095103;28;20345;-81
2022/08/03 09:32:38;;;;;;;;;;;;;;;;;;5094673;28;19916;-80
2022/08/03 09:35:04;;;;;;;;;;;;;;;;;;5110474;28;19977;-80
2022/08/03 09:37:32;;;;;;;;;;;;;;;;;;5092897;28;19920;-81
2022/08/03 09:40:00;;;;;;;;;;;;;;;;;;5094702;28;20361;-80
2022/08/03 09:42:26;;;;;;;;;;;;;;;;;;5112455;28;19916;-78
2022/08/03 09:44:51;;;;;;;;;;;;;;;;;;5098677;28;19969;-78
2022/08/03 09:47:38;;;;;;;;;;;;;;;;;;5100090;28;19920;-79
2022/08/03 09:50:07;;;;;;;;;;;;;;;;;;5098302;28;20010;-79
2022/08/03 09:52:39;;;;;;;;;;;;;;;;;;5098281;28;20015;-80
2022/08/03 09:55:08;;;;;;;;;;;;;;;;;;5098716;28;19952;-79
2022/08/03 09:57:33;;;;;;;;;;;;;;;;;;5098055;28;20311;-80
2022/08/03 10:00:06;;;;;;;;;;;;;;;;;;5098385;28;19916;-80
2022/08/03 10:02:31;;;;;;;;;;;;;;;;;;5098430;28;20012;-79
2022/08/03 10:04:56;;;;;;;;;;;;;;;;;;5096571;28;20355;-80
2022/08/03 10:07:22;;;;;;;;;;;;;;;;;;5107626;28;19920;-80
2022/08/03 10:10:06;;;;;;;;;;;;;;;;;;5098746;28;20254;-78
2022/08/03 10:12:31;;;;;;;;;;;;;;;;;;5098367;28;20028;-80
2022/08/03 10:14:56;;;;;;;;;;;;;;;;;;5114154;28;19956;-80
2022/08/03 10:17:22;;;;;;;;;;;;;;;;;;5097916;28;20269;-80
2022/08/03 10:19:47;;;;;;;;;;;;;;;;;;5113746;28;19924;-79
2022/08/03 10:22:14;;;;;;;;;;;;;;;;;;5096229;28;20015;-80
2022/08/03 10:24:41;;;;;;;;;;;;;;;;;;5097879;28;19974;-80
2022/08/03 10:27:09;;;;;;;;;;;;;;;;;;5096896;28;19923;-81
2022/08/03 10:29:38;;;;;;;;;;;;;;;;;;5102127;28;19916;-81
2022/08/03 10:32:06;;;;;;;;;;;;;;;;;;5097962;28;19923;-80
2022/08/03 10:34:33;;;;;;;;;;;;;;;;;;5113515;28;19923;-80
2022/08/03 10:36:58;;;;;;;;;;;;;;;;;;5113098;28;20050;-80
2022/08/03 10:39:26;;;;;;;;;;;;;;;;;;5097605;28;19977;-80
2022/08/03 10:41:53;;;;;;;;;;;;;;;;;;5113115;28;19980;-80
2022/08/03 10:44:19;;;;;;;;;;;;;;;;;;5112708;28;19927;-80
2022/08/03 10:46:45;;;;;;;;;;;;;;;;;;5113276;28;19916;-80
2022/08/03 10:49:17;;;;;;;;;;;;;;;;;;5099147;28;20261;-81
2022/08/03 10:51:46;;;;;;;;;;;;;;;;;;5121971;28;20010;-80
2022/08/03 10:54:30;;;;;;;;;;;;;;;;;;5095313;28;19917;-80
2022/08/03 10:59:45;;;;;;;;;;;;;;;;;;5110304;28;19973;-79
2022/08/03 11:02:11;;;;;;;;;;;;;;;;;;5097204;28;19916;-79
2022/08/03 11:04:36;;;;;;;;;;;;;;;;;;5096640;28;19993;-79
2022/08/03 11:07:21;;;;;;;;;;;;;;;;;;5097137;28;20009;-79
2022/08/03 11:09:50;;;;;;;;;;;;;;;;;;5097556;28;19923;-78
2022/08/03 11:12:21;;;;;;;;;;;;;;;;;;5117941;28;19916;-80
2022/08/03 11:14:47;;;;;;;;;;;;;;;;;;5097066;28;20057;-80
2022/08/03 11:17:12;;;;;;;;;;;;;;;;;;5095790;28;20002;-80
2022/08/03 11:19:46;;;;;;;;;;;;;;;;;;5096759;28;19919;-79
2022/08/03 11:22:12;;;;;;;;;;;;;;;;;;5096692;28;19923;-79
2022/08/03 11:24:50;;;;;;;;;;;;;;;;;;5112444;28;19912;-79
2022/08/03 11:27:19;;;;;;;;;;;;;;;;;;5095345;28;20018;-80
2022/08/03 11:29:57;;;;;;;;;;;;;;;;;;5095276;28;19973;-79
2022/08/03 11:32:39;;;;;;;;;;;;;;;;;;5095578;28;19923;-80
2022/08/03 11:35:07;;;;;;;;;;;;;;;;;;5096325;28;20386;-80
2022/08/03 11:37:32;;;;;;;;;;;;;;;;;;5096369;28;19931;-79
2022/08/03 11:39:57;;;;;;;;;;;;;;;;;;5096420;28;19916;-79
2022/08/03 11:42:23;;;;;;;;;;;;;;;;;;5096009;28;19916;-80
2022/08/03 11:44:58;;;;;;;;;;;;;;;;;;5095000;28;20256;-79
2022/08/03 11:47:25;;;;;;;;;;;;;;;;;;5096321;28;19928;-79
2022/08/03 11:49:52;;;;;;;;;;;;;;;;;;5096042;28;19965;-80
2022/08/03 11:52:18;;;;;;;;;;;;;;;;;;5099003;28;19920;-79
2022/08/03 11:54:43;;;;;;;;;;;;;;;;;;5114695;28;19973;-81
2022/08/03 11:57:09;;;;;;;;;;;;;;;;;;5095977;28;20249;-79
2022/08/03 11:59:34;;;;;;;;;;;;;;;;;;5095972;28;19981;-79
2022/08/03 12:02:10;;;;;;;;;;;;;;;;;;5111592;28;20015;-79
2022/08/03 12:04:51;;;;;;;;;;;;;;;;;;5096133;28;19916;-79
2022/08/03 12:07:16;;;;;;;;;;;;;;;;;;5095850;28;19955;-80
2022/08/03 12:09:42;;;;;;;;;;;;;;;;;;5094317;28;19951;-79
2022/08/03 12:12:07;;;;;;;;;;;;;;;;;;5095563;28;19916;-79
2022/08/03 12:14:33;;;;;;;;;;;;;;;;;;5102814;28;20330;-79
2022/08/03 12:16:58;;;;;;;;;;;;;;;;;;5095614;28;20310;-80
2022/08/03 12:19:23;;;;;;;;;;;;;;;;;;5111466;28;19916;-80
2022/08/03 12:21:49;;;;;;;;;;;;;;;;;;5111252;28;19916;-80
2022/08/03 12:24:14;;;;;;;;;;;;;;;;;;5095727;28;19965;-79
2022/08/03 12:26:44;;;;;;;;;;;;;;;;;;5095543;28;20346;-79
2022/08/03 12:29:35;;;;;;;;;;;;;;;;;;5095660;28;19974;-80
2022/08/03 12:32:00;;;;;;;;;;;;;;;;;;5091257;28;19970;-79
2022/08/03 12:34:45;;;;;;;;;;;;;;;;;;5101358;28;19973;-79
2022/08/03 12:37:13;;;;;;;;;;;;;;;;;;5111039;28;19916;-81
2022/08/03 12:39:38;;;;;;;;;;;;;;;;;;5111300;28;19916;-80
2022/08/03 12:42:03;;;;;;;;;;;;;;;;;;5111111;28;20327;-80
2022/08/03 12:44:35;;;;;;;;;;;;;;;;;;5094905;28;20325;-80
2022/08/03 12:47:01;;;;;;;;;;;;;;;;;;5110702;28;19970;-80
2022/08/03 12:49:26;;;;;;;;;;;;;;;;;;5094898;28;19912;-88
2022/08/03 12:51:52;;;;;;;;;;;;;;;;;;5111140;28;20317;-88
2022/08/03 12:54:21;;;;;;;;;;;;;;;;;;5097347;28;20215;-84
2022/08/03 12:57:02;;;;;;;;;;;;;;;;;;5100524;28;19920;-88
2022/08/03 12:59:28;;;;;;;;;;;;;;;;;;5095380;28;19959;-88
2022/08/03 13:01:53;;;;;;;;;;;;;;;;;;5094968;28;20310;-86
2022/08/03 13:04:39;;;;;;;;;;;;;;;;;;5110812;28;19916;-88
2022/08/03 13:07:08;;;;;;;;;;;;;;;;;;5093106;28;19916;-88
2022/08/03 13:09:41;;;;;;;;;;;;;;;;;;5093630;28;19951;-88
2022/08/03 13:12:08;;;;;;;;;;;;;;;;;;5094752;28;19980;-85
2022/08/03 13:14:33;;;;;;;;;;;;;;;;;;5094777;28;19963;-84
2022/08/03 13:16:58;;;;;;;;;;;;;;;;;;5120527;28;19920;-88
2022/08/03 13:19:24;;;;;;;;;;;;;;;;;;5102162;28;20002;-85
2022/08/03 13:21:49;;;;;;;;;;;;;;;;;;5108764;28;19942;-89
2022/08/03 13:24:14;;;;;;;;;;;;;;;;;;5136853;28;19926;-85
2022/08/03 13:26:40;;;;;;;;;;;;;;;;;;5137057;28;19904;-86
2022/08/03 13:31:49;;;;;;;;;;;;;;;;;;5102281;28;19923;-87
2022/08/03 13:34:14;;;;;;;;;;;;;;;;;;5101369;28;19916;-86
2022/08/03 13:36:39;;;;;;;;;;;;;;;;;;5107813;28;19916;-86
2022/08/03 13:39:05;;;;;;;;;;;;;;;;;;5107522;28;19920;-89
2022/08/03 13:41:30;;;;;;;;;;;;;;;;;;5101598;28;19916;-85
2022/08/03 13:43:55;;;;;;;;;;;;;;;;;;5099980;28;20011;-89
2022/08/03 13:46:21;;;;;;;;;;;;;;;;;;5117208;28;20325;-88
2022/08/03 13:48:46;;;;;;;;;;;;;;;;;;5101331;28;19912;-86
2022/08/03 13:51:12;;;;;;;;;;;;;;;;;;5101602;28;19916;-87
2022/08/03 13:53:37;;;;;;;;;;;;;;;;;;5101487;28;19923;-87
2022/08/03 13:56:03;;;;;;;;;;;;;;;;;;5116864;28;19966;-86
2022/08/03 13:58:28;;;;;;;;;;;;;;;;;;5118538;28;19916;-86
2022/08/03 14:00:53;;;;;;;;;;;;;;;;;;5101274;28;19916;-89
2022/08/03 14:03:19;;;;;;;;;;;;;;;;;;5099691;28;19916;-87
2022/08/03 14:05:47;;;;;;;;;;;;;;;;;;5100126;28;20337;-90
2022/08/03 14:08:12;;;;;;;;;;;;;;;;;;5101356;28;19939;-87
2022/08/03 14:10:40;;;;;;;;;;;;;;;;;;5099377;28;19924;-89
2022/08/03 14:13:05;;;;;;;;;;;;;;;;;;5116536;28;19916;-87
2022/08/03 14:15:30;;;;;;;;;;;;;;;;;;5099289;28;19916;-87
2022/08/03 14:17:56;;;;;;;;;;;;;;;;;;5118300;28;19916;-88
2022/08/03 14:20:21;;;;;;;;;;;;;;;;;;5109318;28;19920;-89
2022/08/03 14:22:46;;;;;;;;;;;;;;;;;;5100682;28;19916;-88
2022/08/03 14:25:12;;;;;;;;;;;;;;;;;;5100583;28;19916;-87
2022/08/03 14:27:37;;;;;;;;;;;;;;;;;;5099833;28;20011;-88
2022/08/03 14:30:02;;;;;;;;;;;;;;;;;;5096561;28;19942;-88
2022/08/03 14:32:28;;;;;;;;;;;;;;;;;;5113416;28;19916;-87
2022/08/03 14:34:53;;;;;;;;;;;;;;;;;;5113383;28;19920;-88
2022/08/03 14:37:18;;;;;;;;;;;;;;;;;;5097243;28;19922;-87
2022/08/03 14:39:45;;;;;;;;;;;;;;;;;;5106586;28;19918;-85
2022/08/03 14:42:11;;;;;;;;;;;;;;;;;;5101560;28;19920;-89
2022/08/03 14:44:36;;;;;;;;;;;;;;;;;;5097040;28;19920;-90
2022/08/03 14:47:01;;;;;;;;;;;;;;;;;;5097738;28;20310;-89
2022/08/03 14:49:26;;;;;;;;;;;;;;;;;;5096964;28;20352;-88
2022/08/03 14:51:52;;;;;;;;;;;;;;;;;;5097209;28;20313;-89
2022/08/03 14:54:17;;;;;;;;;;;;;;;;;;5097056;28;19916;-87
2022/08/03 14:56:42;;;;;;;;;;;;;;;;;;5096815;28;19942;-85
2022/08/03 14:59:08;;;;;;;;;;;;;;;;;;5097355;28;19965;-86
2022/08/03 15:01:33;;;;;;;;;;;;;;;;;;5098336;28;19920;-87
2022/08/03 15:03:58;;;;;;;;;;;;;;;;;;5098792;28;19969;-89
2022/08/03 15:06:23;;;;;;;;;;;;;;;;;;5112709;28;20330;-86
2022/08/03 15:08:49;;;;;;;;;;;;;;;;;;5096892;28;20318;-91
2022/08/03 15:11:14;;;;;;;;;;;;;;;;;;5096234;28;19935;-87
2022/08/03 15:13:39;;;;;;;;;;;;;;;;;;5095400;28;19923;-89
2022/08/03 15:16:07;;;;;;;;;;;;;;;;;;5096442;28;19923;-88
2022/08/03 15:18:32;;;;;;;;;;;;;;;;;;5096636;28;19923;-87
2022/08/03 15:20:58;;;;;;;;;;;;;;;;;;5098968;28;19916;-88
2022/08/03 15:23:23;;;;;;;;;;;;;;;;;;5099637;28;19923;-87
2022/08/03 15:25:48;;;;;;;;;;;;;;;;;;5096013;28;19923;-86
2022/08/03 15:28:14;;;;;;;;;;;;;;;;;;5112252;28;19916;-86
2022/08/03 15:30:39;;;;;;;;;;;;;;;;;;5096213;28;19916;-87
2022/08/03 15:33:04;;;;;;;;;;;;;;;;;;5111897;28;19916;-86
2022/08/03 15:35:29;;;;;;;;;;;;;;;;;;5096564;28;20325;-86
2022/08/03 15:37:55;;;;;;;;;;;;;;;;;;5112159;28;19916;-87
2022/08/03 15:40:20;;;;;;;;;;;;;;;;;;5095825;28;19923;-88
2022/08/03 15:42:46;;;;;;;;;;;;;;;;;;5098512;28;20341;-87
2022/08/03 15:45:11;;;;;;;;;;;;;;;;;;5112381;28;20330;-86
2022/08/03 15:47:36;;;;;;;;;;;;;;;;;;5096052;28;20431;-87
2022/08/03 15:50:02;;;;;;;;;;;;;;;;;;5096319;28;20367;-86
2022/08/03 15:52:27;;;;;;;;;;;;;;;;;;5096097;28;19916;-87
2022/08/03 15:54:52;;;;;;;;;;;;;;;;;;5111537;28;20547;-86
2022/08/03 15:57:18;;;;;;;;;;;;;;;;;;5095907;28;20306;-85
2022/08/03 15:59:43;;;;;;;;;;;;;;;;;;5095599;28;20325;-87
2022/08/03 16:02:08;;;;;;;;;;;;;;;;;;5095531;28;20029;-87
2022/08/03 16:04:34;;;;;;;;;;;;;;;;;;5120794;28;20006;-86
2022/08/03 16:06:59;;;;;;;;;;;;;;;;;;5095712;28;19916;-86
2022/08/03 16:09:24;;;;;;;;;;;;;;;;;;5095489;28;19923;-86
2022/08/03 16:11:49;;;;;;;;;;;;;;;;;;5095725;28;19924;-86
2022/08/03 16:14:15;;;;;;;;;;;;;;;;;;5095347;28;19916;-88
2022/08/03 16:16:40;;;;;;;;;;;;;;;;;;5095255;28;19916;-86
2022/08/03 16:19:05;;;;;;;;;;;;;;;;;;5095488;28;19923;-86
2022/08/03 16:21:31;;;;;;;;;;;;;;;;;;5095475;28;19916;-86
2022/08/03 16:23:56;;;;;;;;;;;;;;;;;;5104367;28;20026;-86
2022/08/03 16:26:22;;;;;;;;;;;;;;;;;;5098187;28;19917;-86
2022/08/03 16:28:47;;;;;;;;;;;;;;;;;;5095359;28;19923;-86
2022/08/03 16:31:12;;;;;;;;;;;;;;;;;;5094950;28;20351;-86
2022/08/03 16:33:39;;;;;;;;;;;;;;;;;;5095252;28;19916;-85
2022/08/03 16:36:04;;;;;;;;;;;;;;;;;;5093988;28;20002;-88
2022/08/03 16:38:30;;;;;;;;;;;;;;;;;;5094621;28;20379;-85
2022/08/03 16:40:55;;;;;;;;;;;;;;;;;;5094942;28;20019;-86
2022/08/03 16:43:23;;;;;;;;;;;;;;;;;;5097120;28;20010;-85
2022/08/03 16:45:48;;;;;;;;;;;;;;;;;;5093723;28;19923;-85
2022/08/03 16:48:14;;;;;;;;;;;;;;;;;;5093745;28;19916;-87
2022/08/03 16:50:39;;;;;;;;;;;;;;;;;;5094959;28;19972;-87
2022/08/03 16:53:05;;;;;;;;;;;;;;;;;;5094204;28;20261;-86